Time;durP1;ratioP1;P1;durP2;ratioP2;P2;SDS_P1;SDS_P2;PMS_P1;PMS_P2;Temp;Humidity;BMP_temperature;BMP_pressure;BME280_temperature;BME280_humidity;BME280_pressure;Samples;Min_cycle;Max_cycle;Signal;HPM_P1;HPM_P2
2021/03/09 00:01:08;;;;;;;44.30;27.33;;;;;;;;;;5046662;28;20179;-81
2021/03/09 00:03:34;;;;;;;42.13;27.90;;;;;;;;;;5054595;28;20277;-81
2021/03/09 00:06:00;;;;;;;42.60;28.43;;;;;;;;;;5057750;28;20180;-81
2021/03/09 00:08:26;;;;;;;45.17;27.83;;;;;;;;;;5049483;28;20257;-81
2021/03/09 00:10:52;;;;;;;43.33;27.73;;;;;;;;;;5046563;28;20250;-81
2021/03/09 00:13:19;;;;;;;43.87;27.73;;;;;;;;;;5053910;28;20603;-82
2021/03/09 00:15:45;;;;;;;44.03;27.13;;;;;;;;;;5056409;28;20188;-81
2021/03/09 00:18:11;;;;;;;40.37;26.37;;;;;;;;;;5055479;28;20180;-82
2021/03/09 00:20:37;;;;;;;40.77;26.63;;;;;;;;;;5054905;28;20184;-81
2021/03/09 00:23:05;;;;;;;38.07;25.33;;;;;;;;;;5073621;28;20266;-81
2021/03/09 00:25:31;;;;;;;41.13;27.00;;;;;;;;;;5050625;28;20243;-81
2021/03/09 00:27:57;;;;;;;42.17;28.33;;;;;;;;;;5048011;28;20177;-82
2021/03/09 00:30:23;;;;;;;44.57;27.30;;;;;;;;;;5055221;28;20221;-81
2021/03/09 00:32:49;;;;;;;39.60;25.57;;;;;;;;;;5040425;28;20184;-82
2021/03/09 00:35:15;;;;;;;41.43;26.43;;;;;;;;;;5045028;28;20325;-82
2021/03/09 00:37:41;;;;;;;40.17;26.37;;;;;;;;;;5072958;28;20184;-82
2021/03/09 00:40:07;;;;;;;42.30;27.37;;;;;;;;;;5054446;28;20184;-81
2021/03/09 00:42:33;;;;;;;41.47;27.63;;;;;;;;;;5074140;28;20196;-81
2021/03/09 00:45:00;;;;;;;38.53;26.40;;;;;;;;;;5049383;28;20188;-81
2021/03/09 00:47:26;;;;;;;46.00;27.80;;;;;;;;;;5052971;28;20192;-81
2021/03/09 00:49:52;;;;;;;38.47;25.47;;;;;;;;;;5047992;28;20216;-81
2021/03/09 00:52:18;;;;;;;39.83;27.00;;;;;;;;;;5053826;28;20219;-81
2021/03/09 00:54:44;;;;;;;37.30;24.83;;;;;;;;;;5055156;28;20180;-81
2021/03/09 00:57:10;;;;;;;41.77;25.13;;;;;;;;;;5053691;28;20238;-81
2021/03/09 00:59:36;;;;;;;36.90;24.60;;;;;;;;;;5049140;28;20601;-82
2021/03/09 01:02:02;;;;;;;39.50;26.00;;;;;;;;;;5051950;28;20249;-81
2021/03/09 01:04:28;;;;;;;37.17;24.17;;;;;;;;;;5053010;28;20184;-81
2021/03/09 01:06:54;;;;;;;33.87;24.17;;;;;;;;;;5054901;28;20173;-81
2021/03/09 01:09:20;;;;;;;32.40;21.83;;;;;;;;;;5050739;28;20545;-81
2021/03/09 01:11:46;;;;;;;33.17;22.37;;;;;;;;;;5048509;28;20636;-82
2021/03/09 01:14:12;;;;;;;32.00;22.77;;;;;;;;;;5040205;28;20184;-81
2021/03/09 01:16:38;;;;;;;33.47;20.57;;;;;;;;;;5073171;28;20420;-81
2021/03/09 01:19:04;;;;;;;29.43;20.10;;;;;;;;;;5049800;28;20191;-81
2021/03/09 01:21:30;;;;;;;28.27;19.57;;;;;;;;;;5054572;28;20287;-81
2021/03/09 01:23:56;;;;;;;29.47;19.63;;;;;;;;;;5054685;28;20584;-81
2021/03/09 01:26:22;;;;;;;25.83;18.20;;;;;;;;;;5049977;28;20488;-81
2021/03/09 01:28:48;;;;;;;25.70;17.17;;;;;;;;;;5054910;28;20227;-81
2021/03/09 01:31:15;;;;;;;26.60;18.20;;;;;;;;;;5053148;28;20177;-82
2021/03/09 01:33:41;;;;;;;28.17;18.90;;;;;;;;;;5055603;28;20263;-82
2021/03/09 01:36:07;;;;;;;25.63;17.47;;;;;;;;;;5053392;28;20611;-81
2021/03/09 01:38:33;;;;;;;26.37;17.73;;;;;;;;;;5054781;28;20181;-81
2021/03/09 01:40:59;;;;;;;24.00;17.43;;;;;;;;;;5047114;28;20188;-81
2021/03/09 01:43:26;;;;;;;23.40;15.87;;;;;;;;;;5052956;28;20260;-81
2021/03/09 01:45:52;;;;;;;23.10;17.23;;;;;;;;;;5072130;28;20184;-82
2021/03/09 01:48:20;;;;;;;24.30;16.67;;;;;;;;;;5052093;28;20214;-82
2021/03/09 01:50:47;;;;;;;22.63;16.53;;;;;;;;;;5053944;28;20265;-81
2021/03/09 01:53:13;;;;;;;25.70;17.23;;;;;;;;;;5055504;28;20192;-81
2021/03/09 01:55:40;;;;;;;24.83;16.27;;;;;;;;;;5054532;28;20297;-81
2021/03/09 01:58:07;;;;;;;24.03;17.10;;;;;;;;;;5053125;28;20207;-81
2021/03/09 02:00:33;;;;;;;22.33;15.97;;;;;;;;;;5061812;28;20188;-81
2021/03/09 02:02:59;;;;;;;23.50;15.97;;;;;;;;;;5053067;28;20204;-81
2021/03/09 02:05:25;;;;;;;25.03;16.00;;;;;;;;;;5055067;28;20601;-81
2021/03/09 02:07:51;;;;;;;27.43;17.50;;;;;;;;;;5070014;28;20302;-81
2021/03/09 02:10:18;;;;;;;20.03;14.83;;;;;;;;;;5071532;28;20660;-81
2021/03/09 02:12:51;;;;;;;20.90;15.00;;;;;;;;;;5072538;28;20176;-81
2021/03/09 02:15:20;;;;;;;23.47;15.57;;;;;;;;;;5072093;28;20249;-81
2021/03/09 02:17:48;;;;;;;23.10;15.93;;;;;;;;;;5054064;28;20212;-81
2021/03/09 02:20:33;;;;;;;20.23;15.30;;;;;;;;;;5036016;28;20189;-81
2021/03/09 02:23:17;;;;;;;22.80;15.77;;;;;;;;;;5060590;28;20215;-81
2021/03/09 02:25:43;;;;;;;21.77;15.60;;;;;;;;;;5039311;28;20181;-81
2021/03/09 02:28:15;;;;;;;20.67;15.53;;;;;;;;;;5050965;28;20181;-81
2021/03/09 02:30:43;;;;;;;22.73;15.50;;;;;;;;;;5052610;28;20517;-81
2021/03/09 02:33:09;;;;;;;20.97;14.27;;;;;;;;;;5053190;28;20230;-81
2021/03/09 02:35:37;;;;;;;22.33;16.23;;;;;;;;;;5052502;28;20196;-82
2021/03/09 02:38:05;;;;;;;22.47;16.30;;;;;;;;;;5071363;28;20180;-81
2021/03/09 02:40:31;;;;;;;19.93;14.80;;;;;;;;;;5052835;28;20184;-81
2021/03/09 02:43:03;;;;;;;21.47;15.60;;;;;;;;;;5052886;28;20204;-82
2021/03/09 02:45:30;;;;;;;24.57;15.80;;;;;;;;;;5053050;28;20627;-81
2021/03/09 02:47:57;;;;;;;22.80;16.07;;;;;;;;;;5043682;28;20173;-81
2021/03/09 02:50:25;;;;;;;21.23;15.03;;;;;;;;;;5050096;28;20209;-81
2021/03/09 02:52:54;;;;;;;22.93;15.53;;;;;;;;;;5066725;28;20189;-81
2021/03/09 02:55:21;;;;;;;22.60;15.53;;;;;;;;;;5050742;28;20183;-81
2021/03/09 02:57:48;;;;;;;21.47;13.83;;;;;;;;;;5066574;28;20191;-82
2021/03/09 03:00:15;;;;;;;22.27;15.90;;;;;;;;;;5067638;28;20195;-82
2021/03/09 03:02:41;;;;;;;19.40;14.27;;;;;;;;;;5067364;28;20254;-81
2021/03/09 03:05:08;;;;;;;24.03;16.23;;;;;;;;;;5051842;28;20177;-81
2021/03/09 03:07:35;;;;;;;21.13;15.07;;;;;;;;;;5053383;28;20187;-81
2021/03/09 03:10:02;;;;;;;19.67;14.53;;;;;;;;;;5052857;28;20257;-81
2021/03/09 03:12:35;;;;;;;22.97;14.87;;;;;;;;;;5049776;28;20522;-81
2021/03/09 03:15:02;;;;;;;19.80;13.63;;;;;;;;;;5055242;28;20489;-81
2021/03/09 03:17:29;;;;;;;21.77;15.00;;;;;;;;;;5067876;28;20180;-81
2021/03/09 03:19:56;;;;;;;24.20;15.73;;;;;;;;;;5062530;28;20176;-81
2021/03/09 03:22:23;;;;;;;21.20;15.50;;;;;;;;;;5070582;28;20250;-81
2021/03/09 03:24:50;;;;;;;21.63;15.00;;;;;;;;;;5051425;28;20640;-81
2021/03/09 03:27:17;;;;;;;22.80;16.07;;;;;;;;;;5052384;28;20168;-81
2021/03/09 03:29:43;;;;;;;24.30;16.70;;;;;;;;;;5050893;28;20616;-81
2021/03/09 03:32:09;;;;;;;23.57;16.07;;;;;;;;;;5053822;28;20208;-81
2021/03/09 03:34:35;;;;;;;22.83;16.20;;;;;;;;;;5051013;28;20169;-82
2021/03/09 03:37:02;;;;;;;21.57;15.67;;;;;;;;;;5051382;28;20187;-82
2021/03/09 03:39:28;;;;;;;26.00;17.77;;;;;;;;;;5052366;28;20176;-82
2021/03/09 03:41:54;;;;;;;22.93;16.83;;;;;;;;;;5071124;28;20215;-82
2021/03/09 03:44:20;;;;;;;27.50;17.20;;;;;;;;;;5052083;28;20275;-81
2021/03/09 03:46:46;;;;;;;24.50;17.30;;;;;;;;;;5043269;28;20579;-81
2021/03/09 03:49:12;;;;;;;24.60;16.83;;;;;;;;;;5069567;28;20322;-81
2021/03/09 03:51:42;;;;;;;26.37;18.07;;;;;;;;;;5052134;28;20176;-81
2021/03/09 03:54:30;;;;;;;25.37;17.67;;;;;;;;;;5056234;28;20173;-81
2021/03/09 03:56:58;;;;;;;25.13;18.40;;;;;;;;;;5039977;28;20218;-81
2021/03/09 03:59:26;;;;;;;26.57;17.83;;;;;;;;;;5033950;28;20177;-82
2021/03/09 04:01:53;;;;;;;25.90;17.60;;;;;;;;;;5044908;28;20215;-82
2021/03/09 04:04:19;;;;;;;27.47;18.43;;;;;;;;;;5052638;28;20184;-82
2021/03/09 04:06:50;;;;;;;26.27;18.83;;;;;;;;;;5051714;28;20556;-82
2021/03/09 04:09:16;;;;;;;27.17;18.30;;;;;;;;;;5050171;28;20177;-82
2021/03/09 04:11:42;;;;;;;27.50;19.13;;;;;;;;;;5049252;28;20195;-82
2021/03/09 04:14:12;;;;;;;26.03;19.10;;;;;;;;;;5052279;28;20173;-82
2021/03/09 04:16:39;;;;;;;27.40;19.93;;;;;;;;;;5070220;28;20176;-82
2021/03/09 04:19:06;;;;;;;29.43;19.87;;;;;;;;;;5068634;28;20188;-82
2021/03/09 04:21:33;;;;;;;26.37;19.63;;;;;;;;;;5067571;28;20184;-82
2021/03/09 04:24:00;;;;;;;31.80;20.87;;;;;;;;;;5050989;28;20216;-82
2021/03/09 04:26:28;;;;;;;28.73;18.93;;;;;;;;;;5050705;28;20180;-82
2021/03/09 04:28:55;;;;;;;31.67;20.33;;;;;;;;;;5052239;28;20176;-82
2021/03/09 04:31:22;;;;;;;27.63;20.13;;;;;;;;;;5051557;28;20704;-82
2021/03/09 04:33:49;;;;;;;24.00;17.20;;;;;;;;;;5052087;28;20177;-82
2021/03/09 04:36:15;;;;;;;30.13;19.77;;;;;;;;;;5069324;28;20234;-82
2021/03/09 04:38:41;;;;;;;26.23;18.60;;;;;;;;;;5051978;28;20275;-82
2021/03/09 04:41:07;;;;;;;27.87;19.43;;;;;;;;;;5043901;28;20207;-82
2021/03/09 04:43:34;;;;;;;27.13;18.30;;;;;;;;;;5043698;28;20208;-82
2021/03/09 04:46:01;;;;;;;31.23;20.97;;;;;;;;;;5031977;28;20173;-82
2021/03/09 04:48:28;;;;;;;27.97;19.03;;;;;;;;;;5050663;28;20628;-82
2021/03/09 04:50:59;;;;;;;29.00;19.20;;;;;;;;;;5051627;28;20224;-82
2021/03/09 04:53:25;;;;;;;27.23;18.80;;;;;;;;;;5049948;28;20584;-82
2021/03/09 04:55:51;;;;;;;30.37;19.30;;;;;;;;;;5050093;28;20199;-82
2021/03/09 04:58:18;;;;;;;30.00;19.70;;;;;;;;;;5052658;28;20234;-82
2021/03/09 05:00:44;;;;;;;31.73;20.50;;;;;;;;;;5073543;28;20192;-82
2021/03/09 05:03:10;;;;;;;26.80;19.70;;;;;;;;;;5072033;28;20196;-82
2021/03/09 05:05:36;;;;;;;29.07;20.20;;;;;;;;;;5052704;28;20192;-82
2021/03/09 05:08:02;;;;;;;28.07;20.13;;;;;;;;;;5054117;28;20592;-82
2021/03/09 05:10:28;;;;;;;28.47;19.47;;;;;;;;;;5065814;28;20214;-82
2021/03/09 05:12:54;;;;;;;28.17;20.60;;;;;;;;;;5051692;28;20200;-82
2021/03/09 05:15:20;;;;;;;26.87;18.60;;;;;;;;;;5049417;28;20218;-82
2021/03/09 05:17:46;;;;;;;30.50;20.00;;;;;;;;;;5053942;28;20651;-82
2021/03/09 05:20:13;;;;;;;30.83;19.53;;;;;;;;;;5042770;28;20601;-82
2021/03/09 05:22:39;;;;;;;28.27;20.33;;;;;;;;;;5046175;28;20208;-82
2021/03/09 05:25:15;;;;;;;28.60;19.40;;;;;;;;;;5052926;28;20230;-82
2021/03/09 05:27:42;;;;;;;30.93;20.13;;;;;;;;;;5053900;28;20203;-82
2021/03/09 05:30:08;;;;;;;28.00;19.33;;;;;;;;;;5054324;28;20177;-82
2021/03/09 05:32:34;;;;;;;28.53;20.00;;;;;;;;;;5052174;28;20204;-82
2021/03/09 05:35:00;;;;;;;30.13;21.20;;;;;;;;;;5041453;28;20191;-82
2021/03/09 05:37:26;;;;;;;33.40;20.40;;;;;;;;;;5054545;28;20224;-82
2021/03/09 05:39:52;;;;;;;34.13;21.53;;;;;;;;;;5054891;28;20680;-82
2021/03/09 05:42:19;;;;;;;30.93;21.03;;;;;;;;;;5053695;28;20264;-82
2021/03/09 05:44:45;;;;;;;32.47;20.67;;;;;;;;;;5037921;28;20199;-82
2021/03/09 05:47:11;;;;;;;29.60;21.13;;;;;;;;;;5064628;28;20173;-82
2021/03/09 05:49:37;;;;;;;35.87;21.80;;;;;;;;;;5054340;28;20231;-82
2021/03/09 05:52:03;;;;;;;35.17;22.73;;;;;;;;;;5056449;28;20252;-82
2021/03/09 05:54:29;;;;;;;33.33;21.73;;;;;;;;;;5056513;28;20188;-82
2021/03/09 05:56:55;;;;;;;31.40;19.83;;;;;;;;;;5074465;28;20654;-82
2021/03/09 05:59:22;;;;;;;30.13;20.57;;;;;;;;;;5048692;28;20185;-82
2021/03/09 06:01:48;;;;;;;30.00;20.80;;;;;;;;;;5069557;28;20199;-82
2021/03/09 06:04:14;;;;;;;30.07;19.97;;;;;;;;;;5054054;28;20172;-82
2021/03/09 06:06:40;;;;;;;29.33;20.03;;;;;;;;;;5052964;28;20180;-82
2021/03/09 06:09:39;;;;;;;29.33;19.57;;;;;;;;;;5055670;28;20180;-82
2021/03/09 06:12:18;;;;;;;27.80;18.87;;;;;;;;;;5009527;28;20199;-82
2021/03/09 06:15:00;;;;;;;30.17;20.73;;;;;;;;;;5036102;28;20280;-82
2021/03/09 06:17:26;;;;;;;31.83;20.27;;;;;;;;;;5050980;28;20180;-82
2021/03/09 06:19:52;;;;;;;29.03;19.70;;;;;;;;;;5052453;28;20203;-82
2021/03/09 06:22:19;;;;;;;29.50;19.13;;;;;;;;;;5052900;28;20223;-82
2021/03/09 06:24:46;;;;;;;29.30;20.23;;;;;;;;;;5048100;28;20177;-82
2021/03/09 06:27:29;;;;;;;28.37;19.37;;;;;;;;;;5072429;28;20207;-82
2021/03/09 06:29:55;;;;;;;27.07;19.97;;;;;;;;;;5053736;28;20176;-82
2021/03/09 06:32:22;;;;;;;29.30;19.70;;;;;;;;;;5051946;28;20212;-82
2021/03/09 06:34:48;;;;;;;28.07;18.80;;;;;;;;;;5053360;28;20508;-81
2021/03/09 06:37:17;;;;;;;27.90;18.53;;;;;;;;;;5037871;28;20311;-82
2021/03/09 06:39:55;;;;;;;28.87;17.87;;;;;;;;;;5053365;28;20219;-82
2021/03/09 06:42:26;;;;;;;28.30;21.17;;;;;;;;;;5051428;28;20208;-83
2021/03/09 06:44:56;;;;;;;28.33;19.37;;;;;;;;;;5042974;28;20177;-83
2021/03/09 06:47:32;;;;;;;27.77;19.23;;;;;;;;;;5070431;28;20561;-83
2021/03/09 06:49:58;;;;;;;27.20;20.57;;;;;;;;;;5065886;28;20874;-83
2021/03/09 06:52:25;;;;;;;26.77;19.67;;;;;;;;;;5039354;28;20173;-83
2021/03/09 06:54:53;;;;;;;26.33;19.10;;;;;;;;;;5035942;28;20204;-83
2021/03/09 06:57:19;;;;;;;27.83;19.47;;;;;;;;;;5048713;28;20180;-83
2021/03/09 06:59:48;;;;;;;27.90;20.07;;;;;;;;;;5054690;28;20181;-83
2021/03/09 07:02:16;;;;;;;27.43;19.47;;;;;;;;;;5050643;28;20310;-83
2021/03/09 07:04:45;;;;;;;26.57;19.43;;;;;;;;;;5050267;28;20195;-84
2021/03/09 07:07:16;;;;;;;26.77;18.93;;;;;;;;;;5048368;28;20624;-84
2021/03/09 07:09:53;;;;;;;27.33;19.83;;;;;;;;;;5054379;28;20211;-84
2021/03/09 07:12:19;;;;;;;22.97;18.17;;;;;;;;;;5057361;28;20233;-84
2021/03/09 07:14:47;;;;;;;26.43;19.33;;;;;;;;;;5045932;28;20181;-84
2021/03/09 07:17:14;;;;;;;27.27;19.13;;;;;;;;;;5058866;28;20255;-84
2021/03/09 07:19:41;;;;;;;26.17;18.67;;;;;;;;;;5060655;28;20192;-84
2021/03/09 07:22:09;;;;;;;26.83;19.40;;;;;;;;;;5057200;28;20729;-84
2021/03/09 07:24:39;;;;;;;30.13;20.23;;;;;;;;;;5055547;28;20181;-84
2021/03/09 07:27:11;;;;;;;27.90;19.80;;;;;;;;;;5067566;28;20253;-83
2021/03/09 07:29:39;;;;;;;28.87;20.00;;;;;;;;;;5052768;28;20181;-84
2021/03/09 07:32:11;;;;;;;25.80;19.27;;;;;;;;;;5043291;28;20211;-84
2021/03/09 07:34:38;;;;;;;26.43;20.67;;;;;;;;;;5055925;28;20270;-84
2021/03/09 07:37:04;;;;;;;31.37;20.77;;;;;;;;;;5052510;28;20188;-84
2021/03/09 07:39:31;;;;;;;27.87;20.33;;;;;;;;;;5057001;28;20284;-84
2021/03/09 07:41:58;;;;;;;30.33;19.50;;;;;;;;;;5051651;28;20211;-84
2021/03/09 07:44:25;;;;;;;26.23;19.70;;;;;;;;;;5071903;28;20226;-84
2021/03/09 07:46:52;;;;;;;24.10;18.97;;;;;;;;;;5049491;28;20243;-84
2021/03/09 07:49:19;;;;;;;28.53;20.17;;;;;;;;;;5052447;28;20267;-84
2021/03/09 07:52:04;;;;;;;27.23;19.77;;;;;;;;;;5055828;28;20538;-83
2021/03/09 07:54:31;;;;;;;25.40;18.90;;;;;;;;;;5045773;28;20168;-83
2021/03/09 07:57:16;;;;;;;26.13;18.93;;;;;;;;;;5051149;28;20187;-84
2021/03/09 08:00:15;;;;;;;26.93;18.93;;;;;;;;;;5052199;28;20231;-84
2021/03/09 08:02:57;;;;;;;24.77;18.17;;;;;;;;;;5027456;28;20220;-83
2021/03/09 08:05:28;;;;;;;24.77;18.50;;;;;;;;;;5053712;28;20165;-83
2021/03/09 08:08:00;;;;;;;26.80;19.53;;;;;;;;;;5047282;28;20623;-83
2021/03/09 08:10:40;;;;;;;26.40;18.90;;;;;;;;;;5040289;28;20196;-83
2021/03/09 08:13:12;;;;;;;22.60;17.47;;;;;;;;;;5044380;28;20180;-83
2021/03/09 08:15:39;;;;;;;25.30;18.60;;;;;;;;;;5042168;28;20193;-84
2021/03/09 08:18:20;;;;;;;25.40;18.67;;;;;;;;;;5049614;28;20256;-83
2021/03/09 08:20:59;;;;;;;24.30;18.77;;;;;;;;;;5063430;28;20184;-84
2021/03/09 08:23:35;;;;;;;25.97;18.33;;;;;;;;;;5044989;28;20212;-83
2021/03/09 08:26:05;;;;;;;24.67;17.67;;;;;;;;;;5068914;28;20225;-84
2021/03/09 08:28:32;;;;;;;24.37;17.80;;;;;;;;;;5065838;28;20188;-83
2021/03/09 08:31:10;;;;;;;22.70;17.33;;;;;;;;;;5048367;28;20261;-84
2021/03/09 08:33:39;;;;;;;24.83;18.30;;;;;;;;;;5045778;28;20665;-83
2021/03/09 08:36:38;;;;;;;23.87;17.93;;;;;;;;;;5070777;28;20176;-83
2021/03/09 08:39:04;;;;;;;23.63;16.90;;;;;;;;;;5018416;28;20194;-83
2021/03/09 08:41:41;;;;;;;23.53;17.33;;;;;;;;;;5056446;28;20180;-83
2021/03/09 08:44:25;;;;;;;24.27;16.97;;;;;;;;;;5055602;28;20606;-83
2021/03/09 08:47:05;;;;;;;24.83;16.97;;;;;;;;;;5053061;28;20172;-83
2021/03/09 08:49:34;;;;;;;25.00;17.13;;;;;;;;;;5040222;28;20216;-83
2021/03/09 08:52:07;;;;;;;23.37;16.77;;;;;;;;;;5047057;28;20412;-83
2021/03/09 08:54:40;;;;;;;20.90;16.17;;;;;;;;;;5060350;28;20513;-83
2021/03/09 08:57:24;;;;;;;22.20;16.50;;;;;;;;;;5055472;28;20229;-83
2021/03/09 08:59:51;;;;;;;23.03;15.93;;;;;;;;;;5049516;28;20414;-83
2021/03/09 09:02:18;;;;;;;22.40;15.27;;;;;;;;;;5054180;28;20196;-83
2021/03/09 09:04:54;;;;;;;22.23;16.07;;;;;;;;;;5065707;28;20271;-83
2021/03/09 09:07:25;;;;;;;21.80;15.07;;;;;;;;;;5043137;28;20442;-83
2021/03/09 09:09:52;;;;;;;20.63;15.67;;;;;;;;;;5050992;28;20205;-83
2021/03/09 09:12:31;;;;;;;20.40;14.77;;;;;;;;;;5054098;28;20497;-85
2021/03/09 09:15:03;;;;;;;18.17;14.07;;;;;;;;;;5060892;28;20219;-85
2021/03/09 09:17:32;;;;;;;19.87;14.90;;;;;;;;;;5056949;28;20180;-83
2021/03/09 09:20:02;;;;;;;18.00;15.10;;;;;;;;;;5041969;28;20926;-82
2021/03/09 09:22:29;;;;;;;20.40;14.37;;;;;;;;;;5048198;28;20626;-83
2021/03/09 09:24:57;;;;;;;18.80;14.33;;;;;;;;;;5055662;28;20514;-83
2021/03/09 09:27:23;;;;;;;17.47;13.67;;;;;;;;;;5063472;28;20181;-82
2021/03/09 09:29:59;;;;;;;18.23;13.93;;;;;;;;;;5056742;28;20253;-82
2021/03/09 09:32:28;;;;;;;21.10;15.20;;;;;;;;;;5046435;28;20177;-83
2021/03/09 09:35:13;;;;;;;19.13;14.20;;;;;;;;;;5053003;28;20201;-82
2021/03/09 09:37:49;;;;;;;18.23;13.17;;;;;;;;;;5055585;28;20378;-83
2021/03/09 09:40:17;;;;;;;17.60;13.40;;;;;;;;;;5049824;28;20216;-82
2021/03/09 09:42:43;;;;;;;16.60;13.33;;;;;;;;;;5044769;28;20197;-82
2021/03/09 09:45:12;;;;;;;16.53;13.57;;;;;;;;;;5052503;28;20172;-83
2021/03/09 09:47:39;;;;;;;18.03;13.40;;;;;;;;;;5052474;28;20177;-83
2021/03/09 09:50:07;;;;;;;17.23;13.70;;;;;;;;;;5049384;28;20542;-82
2021/03/09 09:52:34;;;;;;;17.40;14.63;;;;;;;;;;5052312;28;20526;-83
2021/03/09 09:55:00;;;;;;;17.60;14.30;;;;;;;;;;5048950;28;20188;-82
2021/03/09 09:57:29;;;;;;;17.43;12.53;;;;;;;;;;5052437;28;20242;-83
2021/03/09 10:00:11;;;;;;;20.57;14.60;;;;;;;;;;5045781;28;20268;-83
2021/03/09 10:02:37;;;;;;;17.47;13.53;;;;;;;;;;5041645;28;20288;-83
2021/03/09 10:05:06;;;;;;;17.67;12.83;;;;;;;;;;5047510;28;20229;-83
2021/03/09 10:07:41;;;;;;;17.27;13.93;;;;;;;;;;5039919;28;20215;-83
2021/03/09 10:10:09;;;;;;;19.27;14.30;;;;;;;;;;5069929;28;20187;-83
2021/03/09 10:12:37;;;;;;;18.20;14.23;;;;;;;;;;5049851;28;20531;-83
2021/03/09 10:15:05;;;;;;;18.53;14.43;;;;;;;;;;5039896;28;20527;-83
2021/03/09 10:17:31;;;;;;;18.30;14.07;;;;;;;;;;5050077;28;20662;-83
2021/03/09 10:19:57;;;;;;;16.90;13.27;;;;;;;;;;5034690;28;20177;-83
2021/03/09 10:22:27;;;;;;;19.27;14.77;;;;;;;;;;5036650;28;20208;-82
2021/03/09 10:24:58;;;;;;;18.83;13.37;;;;;;;;;;5063374;28;20173;-83
2021/03/09 10:27:24;;;;;;;18.37;13.87;;;;;;;;;;5045704;28;20245;-82
2021/03/09 10:29:58;;;;;;;20.10;14.57;;;;;;;;;;5047401;28;20177;-83
2021/03/09 10:32:24;;;;;;;19.17;14.93;;;;;;;;;;5048421;28;20191;-83
2021/03/09 10:34:57;;;;;;;19.67;14.57;;;;;;;;;;5046877;28;20177;-83
2021/03/09 10:37:32;;;;;;;17.53;14.00;;;;;;;;;;5050173;28;20181;-82
2021/03/09 10:40:00;;;;;;;15.73;13.50;;;;;;;;;;5058810;28;20172;-82
2021/03/09 10:42:26;;;;;;;18.50;14.10;;;;;;;;;;5047517;28;20211;-83
2021/03/09 10:44:53;;;;;;;17.23;14.17;;;;;;;;;;5045930;28;20177;-82
2021/03/09 10:47:19;;;;;;;18.87;13.80;;;;;;;;;;5043783;28;20578;-82
2021/03/09 10:49:46;;;;;;;17.67;14.70;;;;;;;;;;5042623;28;20240;-82
2021/03/09 10:52:12;;;;;;;18.80;15.17;;;;;;;;;;5049451;28;20688;-83
2021/03/09 10:54:38;;;;;;;19.33;14.33;;;;;;;;;;5048432;28;20181;-83
2021/03/09 10:57:14;;;;;;;16.07;13.93;;;;;;;;;;5040469;28;20632;-83
2021/03/09 10:59:40;;;;;;;18.10;13.87;;;;;;;;;;5051956;28;20250;-82
2021/03/09 11:02:07;;;;;;;18.97;14.90;;;;;;;;;;5046054;28;20173;-82
2021/03/09 11:04:34;;;;;;;19.70;14.90;;;;;;;;;;5054403;28;20203;-82
2021/03/09 11:07:01;;;;;;;17.67;14.17;;;;;;;;;;5043466;28;20177;-83
2021/03/09 11:09:27;;;;;;;18.13;14.13;;;;;;;;;;5045780;28;20547;-83
2021/03/09 11:11:54;;;;;;;21.63;16.40;;;;;;;;;;5048827;28;20407;-83
2021/03/09 11:14:20;;;;;;;20.57;15.67;;;;;;;;;;5049205;28;20184;-83
2021/03/09 11:16:46;;;;;;;19.27;15.87;;;;;;;;;;5046882;28;20283;-83
2021/03/09 11:19:13;;;;;;;19.17;15.13;;;;;;;;;;5046289;28;20181;-82
2021/03/09 11:21:39;;;;;;;19.97;15.37;;;;;;;;;;5048536;28;20486;-82
2021/03/09 11:24:05;;;;;;;20.67;15.80;;;;;;;;;;5047941;28;20200;-83
2021/03/09 11:26:31;;;;;;;19.43;15.53;;;;;;;;;;5048546;28;20172;-82
2021/03/09 11:28:57;;;;;;;23.93;18.27;;;;;;;;;;5039264;28;20173;-83
2021/03/09 11:31:24;;;;;;;21.73;16.20;;;;;;;;;;5048694;28;20184;-82
2021/03/09 11:33:50;;;;;;;24.30;16.47;;;;;;;;;;5046234;28;20431;-82
2021/03/09 11:36:16;;;;;;;20.27;15.20;;;;;;;;;;5046595;28;20284;-82
2021/03/09 11:38:43;;;;;;;19.07;14.33;;;;;;;;;;5039749;28;20192;-83
2021/03/09 11:41:14;;;;;;;19.70;14.90;;;;;;;;;;5044665;28;20195;-83
2021/03/09 11:43:41;;;;;;;21.43;15.63;;;;;;;;;;5043131;28;20204;-82
2021/03/09 11:46:07;;;;;;;19.63;15.77;;;;;;;;;;5048302;28;20176;-82
2021/03/09 11:48:33;;;;;;;19.87;14.90;;;;;;;;;;5042235;28;20485;-82
2021/03/09 11:50:59;;;;;;;20.40;15.97;;;;;;;;;;5045939;28;20361;-82
2021/03/09 11:53:25;;;;;;;22.07;15.73;;;;;;;;;;5047045;28;20450;-82
2021/03/09 11:55:52;;;;;;;18.80;15.03;;;;;;;;;;5042618;28;20176;-82
2021/03/09 11:58:18;;;;;;;21.67;15.50;;;;;;;;;;5045213;28;20188;-82
2021/03/09 12:00:44;;;;;;;21.83;16.53;;;;;;;;;;5049702;28;20181;-83
2021/03/09 12:03:10;;;;;;;21.00;15.63;;;;;;;;;;5052395;28;20682;-82
2021/03/09 12:05:36;;;;;;;20.53;15.73;;;;;;;;;;5039626;28;20208;-83
2021/03/09 12:08:02;;;;;;;22.20;15.73;;;;;;;;;;5063589;28;20193;-83
2021/03/09 12:10:28;;;;;;;21.70;15.43;;;;;;;;;;5055621;28;20222;-82
2021/03/09 12:12:54;;;;;;;22.93;15.53;;;;;;;;;;5053813;28;20184;-83
2021/03/09 12:15:20;;;;;;;20.67;16.00;;;;;;;;;;5046571;28;20184;-83
2021/03/09 12:17:46;;;;;;;22.87;16.60;;;;;;;;;;5052809;28;20180;-82
2021/03/09 12:20:13;;;;;;;21.20;15.77;;;;;;;;;;5054393;28;20702;-83
2021/03/09 12:22:39;;;;;;;22.57;16.70;;;;;;;;;;5052219;28;20196;-83
2021/03/09 12:25:06;;;;;;;21.07;15.43;;;;;;;;;;5047590;28;20580;-82
2021/03/09 12:27:35;;;;;;;20.73;16.20;;;;;;;;;;5070589;28;20181;-83
2021/03/09 12:30:01;;;;;;;22.57;16.87;;;;;;;;;;5047437;28;20195;-82
2021/03/09 12:32:27;;;;;;;21.73;16.17;;;;;;;;;;5059138;28;20189;-82
2021/03/09 12:34:58;;;;;;;21.40;16.50;;;;;;;;;;5052178;28;20545;-83
2021/03/09 12:37:25;;;;;;;21.73;16.53;;;;;;;;;;5055167;28;20183;-83
2021/03/09 12:39:51;;;;;;;21.33;16.10;;;;;;;;;;5051089;28;20271;-83
2021/03/09 12:42:19;;;;;;;20.60;15.90;;;;;;;;;;5037704;28;20197;-83
2021/03/09 12:44:45;;;;;;;21.07;16.13;;;;;;;;;;5050795;28;20177;-83
2021/03/09 12:47:11;;;;;;;21.97;16.13;;;;;;;;;;5057758;28;20180;-83
2021/03/09 12:49:37;;;;;;;25.20;17.37;;;;;;;;;;5053387;28;20329;-83
2021/03/09 12:52:04;;;;;;;23.50;17.00;;;;;;;;;;5059498;28;20230;-83
2021/03/09 12:54:30;;;;;;;24.17;17.90;;;;;;;;;;5054021;28;20183;-83
2021/03/09 12:56:56;;;;;;;22.27;16.87;;;;;;;;;;5054022;28;20173;-83
2021/03/09 12:59:22;;;;;;;24.50;18.77;;;;;;;;;;5068519;28;20176;-83
2021/03/09 13:01:48;;;;;;;21.93;16.63;;;;;;;;;;5052910;28;20181;-83
2021/03/09 13:04:14;;;;;;;22.93;16.37;;;;;;;;;;5056073;28;20212;-84
2021/03/09 13:06:41;;;;;;;24.50;16.43;;;;;;;;;;5048500;28;20176;-82
2021/03/09 13:09:07;;;;;;;23.90;17.00;;;;;;;;;;5067550;28;20216;-83
2021/03/09 13:11:36;;;;;;;21.20;15.97;;;;;;;;;;5054860;28;20216;-83
2021/03/09 13:14:02;;;;;;;22.70;16.47;;;;;;;;;;5045703;28;20191;-83
2021/03/09 13:16:28;;;;;;;22.87;17.43;;;;;;;;;;5052527;28;20187;-83
2021/03/09 13:18:54;;;;;;;22.67;16.93;;;;;;;;;;5056781;28;20188;-83
2021/03/09 13:21:21;;;;;;;26.43;17.07;;;;;;;;;;5050265;28;20184;-83
2021/03/09 13:23:47;;;;;;;22.17;16.77;;;;;;;;;;5044699;28;20204;-83
2021/03/09 13:26:13;;;;;;;23.17;17.13;;;;;;;;;;5055776;28;20184;-83
2021/03/09 13:28:40;;;;;;;21.70;16.20;;;;;;;;;;5055152;28;20593;-83
2021/03/09 13:31:06;;;;;;;21.80;16.33;;;;;;;;;;5055483;28;20181;-83
2021/03/09 13:33:32;;;;;;;21.27;16.07;;;;;;;;;;5054876;28;20660;-83
2021/03/09 13:35:58;;;;;;;27.43;17.90;;;;;;;;;;5041550;28;20196;-83
2021/03/09 13:38:24;;;;;;;22.10;16.67;;;;;;;;;;5041085;28;20181;-83
2021/03/09 13:40:51;;;;;;;21.10;15.80;;;;;;;;;;5061025;28;20200;-84
2021/03/09 13:43:17;;;;;;;25.73;17.87;;;;;;;;;;5048040;28;20811;-83
2021/03/09 13:45:43;;;;;;;23.30;15.93;;;;;;;;;;5051883;28;20177;-83
2021/03/09 13:48:09;;;;;;;23.10;16.53;;;;;;;;;;5047766;28;20466;-83
2021/03/09 13:50:35;;;;;;;21.23;15.57;;;;;;;;;;5048044;28;20247;-83
2021/03/09 13:53:01;;;;;;;21.90;16.87;;;;;;;;;;5052059;28;20191;-83
2021/03/09 13:55:28;;;;;;;23.58;20.02;;;;;;;;;;5045871;28;20460;-83
2021/03/09 13:57:54;;;;;;;23.93;16.83;;;;;;;;;;5047370;28;20207;-83
2021/03/09 14:00:20;;;;;;;22.85;19.40;;;;;;;;;;5045685;28;20477;-83
2021/03/09 14:02:46;;;;;;;19.97;17.03;;;;;;;;;;5047316;28;20201;-83
2021/03/09 14:05:13;;;;;;;22.33;16.27;;;;;;;;;;5045556;28;20635;-83
2021/03/09 14:07:40;;;;;;;20.70;16.13;;;;;;;;;;5047784;28;20271;-83
2021/03/09 14:10:07;;;;;;;21.60;15.73;;;;;;;;;;5042035;28;20601;-83
2021/03/09 14:12:33;;;;;;;20.47;15.53;;;;;;;;;;5047398;28;20268;-83
2021/03/09 14:14:59;;;;;;;21.57;15.00;;;;;;;;;;5047360;28;20185;-83
2021/03/09 14:17:26;;;;;;;19.63;15.73;;;;;;;;;;5047890;28;20185;-83
2021/03/09 14:19:52;;;;;;;21.00;14.40;;;;;;;;;;5051775;28;20185;-83
2021/03/09 14:22:18;;;;;;;19.87;14.83;;;;;;;;;;5036643;28;20197;-83